createdAt,value
2023-03-03T00:00:11.452Z,98624.28
2023-03-03T00:02:41.788Z,98634.16
2023-03-03T00:05:09.340Z,98633.34
2023-03-03T00:07:36.327Z,98616.41
2023-03-03T00:10:04.088Z,98605.06
2023-03-03T00:12:31.719Z,98611.31
2023-03-03T00:14:58.775Z,98607.28
2023-03-03T00:17:30.716Z,98603.16
2023-03-03T00:19:57.673Z,98601.31
2023-03-03T00:22:36.152Z,98604.13
2023-03-03T00:25:29.377Z,98592.31
2023-03-03T00:28:01.878Z,98579.16
2023-03-03T00:30:29.597Z,98580.22
2023-03-03T00:32:56.769Z,98583.84
2023-03-03T00:35:38.811Z,98571.84
2023-03-03T00:38:18.365Z,98582.31
2023-03-03T00:40:48.051Z,98554.78
2023-03-03T00:43:21.386Z,98573.03
2023-03-03T00:45:58.709Z,98564.63
2023-03-03T00:48:43.022Z,98553.69
2023-03-03T00:51:31.104Z,98548.66
2023-03-03T00:53:59.745Z,98542.63
2023-03-03T00:56:27.819Z,98545.94
2023-03-03T00:58:54.938Z,98536.50
2023-03-03T01:01:25.642Z,98535.69
2023-03-03T01:03:54.263Z,98541.75
2023-03-03T01:06:21.316Z,98543.50
2023-03-03T01:08:48.340Z,98542.75
2023-03-03T01:11:28.691Z,98525.75
2023-03-03T01:13:57.224Z,98536.88
2023-03-03T01:16:24.345Z,98532.66
2023-03-03T01:18:51.360Z,98531.81
2023-03-03T01:21:18.495Z,98533.34
2023-03-03T01:23:45.557Z,98526.34
2023-03-03T01:26:12.552Z,98514.47
2023-03-03T01:28:39.561Z,98529.28
2023-03-03T01:31:07.074Z,98532.84
2023-03-03T01:33:36.402Z,98530.97
2023-03-03T01:36:04.643Z,98526.53
2023-03-03T01:38:32.298Z,98508.44
2023-03-03T01:41:00.417Z,98513.75
2023-03-03T01:43:29.237Z,98525.63
2023-03-03T01:45:59.203Z,98519.50
2023-03-03T01:48:38.203Z,98513.47
2023-03-03T01:51:08.140Z,98524.63
2023-03-03T01:53:42.792Z,98516.19
2023-03-03T01:56:10.829Z,98517.97
2023-03-03T01:58:44.262Z,98495.50
2023-03-03T02:01:17.865Z,98501.78
2023-03-03T02:03:45.374Z,98508.63
2023-03-03T02:06:16.759Z,98494.22
2023-03-03T02:08:49.347Z,98508.56
2023-03-03T02:11:16.948Z,98487.75
2023-03-03T02:13:43.924Z,98498.31
2023-03-03T02:16:11.018Z,98495.03
2023-03-03T02:18:38.514Z,98491.75
2023-03-03T02:21:12.541Z,98490.91
2023-03-03T02:23:57.793Z,98481.53
2023-03-03T02:26:27.470Z,98470.41
2023-03-03T02:28:59.826Z,98469.53
2023-03-03T02:31:30.697Z,98472.22
2023-03-03T02:33:57.848Z,98469.78
2023-03-03T02:36:30.460Z,98449.19
2023-03-03T02:39:15.691Z,98462.22
2023-03-03T02:41:53.460Z,98441.69
2023-03-03T02:44:27.350Z,98445.91
2023-03-03T02:46:58.196Z,98452.94
2023-03-03T02:49:34.012Z,98455.56
2023-03-03T02:52:05.695Z,98441.72
2023-03-03T02:54:33.490Z,98447.91
2023-03-03T02:57:03.401Z,98454.81
2023-03-03T02:59:30.836Z,98450.44
2023-03-03T03:02:02.611Z,98429.78
2023-03-03T03:04:29.856Z,98442.59
2023-03-03T03:06:57.127Z,98451.31
2023-03-03T03:09:28.394Z,98453.03
2023-03-03T03:11:55.851Z,98452.25
2023-03-03T03:14:26.234Z,98449.63
2023-03-03T03:16:54.699Z,98439.28
2023-03-03T03:19:21.898Z,98447.94
2023-03-03T03:21:48.990Z,98441.78
2023-03-03T03:24:16.808Z,98445.25
2023-03-03T03:26:48.261Z,98440.97
2023-03-03T03:29:15.731Z,98444.53
2023-03-03T03:31:43.975Z,98442.78
2023-03-03T03:34:11.178Z,98436.69
2023-03-03T03:36:40.026Z,98446.09
2023-03-03T03:39:08.080Z,98441.06
2023-03-03T03:41:38.033Z,98436.84
2023-03-03T03:44:05.260Z,98427.47
2023-03-03T03:46:32.325Z,98436.88
2023-03-03T03:48:59.424Z,98429.97
2023-03-03T03:51:26.916Z,98416.09
2023-03-03T03:53:53.909Z,98425.53
2023-03-03T03:56:21.070Z,98431.53
2023-03-03T03:58:51.692Z,98425.44
2023-03-03T04:01:18.935Z,98423.78
2023-03-03T04:03:49.324Z,98421.84
2023-03-03T04:06:19.654Z,98411.75
2023-03-03T04:08:47.601Z,98392.66
2023-03-03T04:11:15.837Z,98402.38
2023-03-03T04:13:43.153Z,98403.41
2023-03-03T04:16:12.087Z,98410.31
2023-03-03T04:18:44.391Z,98408.53
2023-03-03T04:21:15.616Z,98402.56
2023-03-03T04:23:43.955Z,98391.28
2023-03-03T04:26:11.499Z,98407.63
2023-03-03T04:28:39.298Z,98384.22
2023-03-03T04:31:07.152Z,98406.75
2023-03-03T04:33:34.798Z,98401.53
2023-03-03T04:36:03.256Z,98381.69
2023-03-03T04:38:31.391Z,98347.56
2023-03-03T04:40:58.480Z,98396.34
2023-03-03T04:43:28.294Z,98400.59
2023-03-03T04:45:56.367Z,98388.53
2023-03-03T04:48:23.762Z,98400.50
2023-03-03T04:50:51.029Z,98377.84
2023-03-03T04:53:18.057Z,98398.63
2023-03-03T04:55:45.214Z,98401.28
2023-03-03T04:58:12.608Z,98393.44
2023-03-03T05:00:40.492Z,98410.88
2023-03-03T05:03:11.925Z,98398.94
2023-03-03T05:05:41.810Z,98409.22
2023-03-03T05:08:08.808Z,98400.44
2023-03-03T05:10:35.826Z,98389.38
2023-03-03T05:13:02.928Z,98409.97
2023-03-03T05:15:29.935Z,98409.06
2023-03-03T05:17:57.181Z,98389.31
2023-03-03T05:20:24.747Z,98392.78
2023-03-03T05:22:52.529Z,98406.78
2023-03-03T05:25:19.548Z,98412.81
2023-03-03T05:27:46.690Z,98411.13
2023-03-03T05:30:13.894Z,98410.31
2023-03-03T05:32:40.987Z,98414.66
2023-03-03T05:35:08.420Z,98413.84
2023-03-03T05:37:35.390Z,98407.00
2023-03-03T05:40:02.368Z,98411.25
2023-03-03T05:42:30.379Z,98416.47
2023-03-03T05:44:57.650Z,98397.47
2023-03-03T05:47:24.714Z,98407.13
2023-03-03T05:49:51.741Z,98411.59
2023-03-03T05:52:18.730Z,98413.31
2023-03-03T05:54:45.801Z,98390.78
2023-03-03T05:57:12.790Z,98392.72
2023-03-03T05:59:39.853Z,98401.31
2023-03-03T06:02:07.021Z,98410.75
2023-03-03T06:04:34.452Z,98357.00
2023-03-03T06:07:01.709Z,98410.75
2023-03-03T06:09:29.454Z,98415.91
2023-03-03T06:11:56.581Z,98403.91
2023-03-03T06:14:26.005Z,98397.56
2023-03-03T06:16:53.976Z,98403.00
2023-03-03T06:19:21.273Z,98411.66
2023-03-03T06:21:48.251Z,98422.00
2023-03-03T06:24:16.473Z,98425.25
2023-03-03T06:26:43.658Z,98431.38
2023-03-03T06:29:10.629Z,98426.34
2023-03-03T06:31:37.679Z,98418.28
2023-03-03T06:34:04.651Z,98410.59
2023-03-03T06:36:31.690Z,98410.81
2023-03-03T06:38:58.660Z,98406.72
2023-03-03T06:41:25.671Z,98420.69
2023-03-03T06:43:52.768Z,98421.63
2023-03-03T06:46:19.753Z,98422.56
2023-03-03T06:48:46.798Z,98421.91
2023-03-03T06:51:24.802Z,98416.91
2023-03-03T06:53:56.105Z,98428.19
2023-03-03T06:56:25.841Z,98418.09
2023-03-03T06:58:58.765Z,98400.94
2023-03-03T07:01:25.950Z,98425.88
2023-03-03T07:03:53.086Z,98420.69
2023-03-03T07:06:26.058Z,98396.53
2023-03-03T07:08:53.357Z,98409.34
2023-03-03T07:11:22.916Z,98422.50
2023-03-03T07:13:55.614Z,98422.53
2023-03-03T07:16:27.527Z,98425.09
2023-03-03T07:18:55.834Z,98430.19
2023-03-03T07:21:35.754Z,98428.38
2023-03-03T07:24:29.409Z,98424.06
2023-03-03T07:27:14.117Z,98426.78
2023-03-03T07:29:41.649Z,98433.59
2023-03-03T07:32:43.396Z,98427.06
2023-03-03T07:35:43.839Z,98431.34
2023-03-03T07:38:53.182Z,98431.44
2023-03-03T07:41:21.145Z,98431.41
2023-03-03T07:44:06.112Z,98417.84
2023-03-03T07:46:45.230Z,98430.13
2023-03-03T07:49:36.906Z,98437.19
2023-03-03T07:52:26.926Z,98426.03
2023-03-03T07:54:56.708Z,98428.47
2023-03-03T07:57:27.142Z,98438.22
2023-03-03T08:00:02.339Z,98440.97
2023-03-03T08:02:41.678Z,98444.50
2023-03-03T08:05:43.849Z,98447.25
2023-03-03T08:08:16.216Z,98448.16
2023-03-03T08:10:52.774Z,98447.63
2023-03-03T08:13:25.333Z,98440.88
2023-03-03T08:16:10.867Z,98445.25
2023-03-03T08:18:46.475Z,98448.44
2023-03-03T08:21:16.729Z,98450.00
2023-03-03T08:23:44.917Z,98442.94
2023-03-03T08:26:14.127Z,98441.84
2023-03-03T08:28:41.444Z,98446.97
2023-03-03T08:31:18.315Z,98449.41
2023-03-03T08:33:49.525Z,98459.72
2023-03-03T08:36:16.582Z,98451.94
2023-03-03T08:38:43.710Z,98451.97
2023-03-03T08:41:10.755Z,98463.22
2023-03-03T08:43:37.717Z,98462.28
2023-03-03T08:46:06.926Z,98456.13
2023-03-03T08:48:38.518Z,98442.34
2023-03-03T08:51:06.103Z,98455.22
2023-03-03T08:53:36.624Z,98453.47
2023-03-03T08:56:05.181Z,98469.94
2023-03-03T08:58:35.541Z,98463.25
2023-03-03T09:01:03.997Z,98449.38
2023-03-03T09:03:31.102Z,98468.59
2023-03-03T09:05:58.156Z,98464.41
2023-03-03T09:08:25.244Z,98468.97
2023-03-03T09:10:52.233Z,98428.91
2023-03-03T09:13:20.312Z,98467.25
2023-03-03T09:15:49.350Z,98438.91
2023-03-03T09:18:37.279Z,98468.28
2023-03-03T09:21:25.648Z,98456.31
2023-03-03T09:23:57.235Z,98455.53
2023-03-03T09:26:30.302Z,98472.34
2023-03-03T09:29:24.026Z,98470.06
2023-03-03T09:31:53.430Z,98467.00
2023-03-03T09:34:24.753Z,98392.00
2023-03-03T09:36:55.977Z,98468.25
2023-03-03T09:39:26.358Z,98455.50
2023-03-03T09:42:27.226Z,98467.72
2023-03-03T09:45:19.211Z,98467.53
2023-03-03T09:48:11.517Z,98481.59
2023-03-03T09:50:38.483Z,98465.78
2023-03-03T09:53:17.391Z,98481.09
2023-03-03T09:55:44.448Z,98475.66
2023-03-03T09:58:45.792Z,98469.72
2023-03-03T10:01:21.670Z,98471.28
2023-03-03T10:04:22.641Z,98471.47
2023-03-03T10:07:14.269Z,98475.97
2023-03-03T10:10:18.370Z,98468.59
2023-03-03T10:13:05.408Z,98476.53
2023-03-03T10:15:54.108Z,98458.47
2023-03-03T10:18:36.818Z,98455.00
2023-03-03T10:21:16.468Z,98473.94
2023-03-03T10:23:58.349Z,98463.56
2023-03-03T10:26:54.614Z,98455.78
2023-03-03T10:29:49.026Z,98462.59
2023-03-03T10:32:38.703Z,98461.59
2023-03-03T10:35:14.663Z,98468.09
2023-03-03T10:38:14.851Z,98434.31
2023-03-03T10:40:48.274Z,98404.72
2023-03-03T10:43:36.426Z,98462.84
2023-03-03T10:46:22.118Z,98472.34
2023-03-03T10:49:04.703Z,98469.72
2023-03-03T10:52:03.609Z,98473.09
2023-03-03T10:54:56.190Z,98468.09
2023-03-03T10:57:32.104Z,98469.97
2023-03-03T11:00:31.730Z,98480.34
2023-03-03T11:03:26.475Z,98471.16
2023-03-03T11:05:58.125Z,98472.16
2023-03-03T11:08:46.582Z,98477.44
2023-03-03T11:11:32.239Z,98472.41
2023-03-03T11:14:06.685Z,98459.47
2023-03-03T11:16:47.579Z,98471.63
2023-03-03T11:19:52.929Z,98468.31
2023-03-03T11:22:33.502Z,98473.50
2023-03-03T11:25:18.878Z,98463.19
2023-03-03T11:28:31.055Z,98412.06
2023-03-03T11:30:58.109Z,98479.16
2023-03-03T11:33:37.236Z,98472.28
2023-03-03T11:36:52.263Z,98476.69
2023-03-03T11:39:23.749Z,98475.16
2023-03-03T11:42:37.764Z,98435.50
2023-03-03T11:45:19.943Z,98448.34
2023-03-03T11:48:01.260Z,98482.06
2023-03-03T11:50:58.669Z,98474.16
2023-03-03T11:53:30.010Z,98493.84
2023-03-03T11:56:14.796Z,98481.81
2023-03-03T11:58:58.232Z,98479.16
2023-03-03T12:01:42.063Z,98481.72
2023-03-03T12:04:22.382Z,98462.59
2023-03-03T12:07:18.920Z,98484.13
2023-03-03T12:10:01.574Z,98483.16
2023-03-03T12:13:02.275Z,98480.84
2023-03-03T12:15:33.761Z,98492.09
2023-03-03T12:18:29.803Z,98484.63
2023-03-03T12:21:15.609Z,98462.47
2023-03-03T12:23:45.678Z,98461.59
2023-03-03T12:26:29.737Z,98469.44
2023-03-03T12:29:11.905Z,98461.75
2023-03-03T12:31:50.901Z,98463.53
2023-03-03T12:34:23.620Z,98475.44
2023-03-03T12:37:16.698Z,98487.41
2023-03-03T12:40:09.419Z,98480.31
2023-03-03T12:43:26.045Z,98481.44
2023-03-03T12:46:28.517Z,98489.72
2023-03-03T12:48:55.884Z,98496.34
2023-03-03T12:51:35.823Z,98489.38
2023-03-03T12:54:11.964Z,98494.72
2023-03-03T12:56:55.629Z,98493.06
2023-03-03T12:59:34.750Z,98492.31
2023-03-03T13:02:33.603Z,98491.44
2023-03-03T13:05:28.170Z,98500.72
2023-03-03T13:08:39.356Z,98502.41
2023-03-03T13:11:29.196Z,98498.84
2023-03-03T13:14:13.084Z,98498.06
2023-03-03T13:16:55.357Z,98504.03
2023-03-03T13:19:27.649Z,98481.50
2023-03-03T13:22:09.704Z,98496.34
2023-03-03T13:24:55.570Z,98496.22
2023-03-03T13:27:28.162Z,98505.47
2023-03-03T13:30:19.428Z,98490.94
2023-03-03T13:33:03.158Z,98480.56
2023-03-03T13:35:54.246Z,98495.22
2023-03-03T13:38:26.407Z,98488.25
2023-03-03T13:41:06.142Z,98485.84
2023-03-03T13:43:43.414Z,98496.94
2023-03-03T13:46:55.016Z,98486.72
2023-03-03T13:49:29.560Z,98487.34
2023-03-03T13:52:08.202Z,98493.34
2023-03-03T13:54:47.300Z,98488.19
2023-03-03T13:57:23.166Z,98477.84
2023-03-03T14:00:12.003Z,98480.47
2023-03-03T14:03:00.424Z,98482.34
2023-03-03T14:05:48.688Z,98483.28
2023-03-03T14:08:34.150Z,98483.41
2023-03-03T14:11:04.280Z,98490.94
2023-03-03T14:13:57.745Z,98486.59
2023-03-03T14:16:41.928Z,98488.13
2023-03-03T14:19:33.180Z,98491.31
2023-03-03T14:22:30.578Z,98486.91
2023-03-03T14:25:02.739Z,98472.06
2023-03-03T14:28:00.772Z,98480.75
2023-03-03T14:30:28.258Z,98485.78
2023-03-03T14:33:10.835Z,98489.25
2023-03-03T14:35:43.279Z,98482.31
2023-03-03T14:38:23.803Z,98487.38
2023-03-03T14:41:14.319Z,98496.03
2023-03-03T14:43:44.056Z,98483.91
2023-03-03T14:46:32.247Z,98482.16
2023-03-03T14:49:32.894Z,98495.91
2023-03-03T14:52:04.730Z,98494.03
2023-03-03T14:54:38.799Z,98481.84
2023-03-03T14:57:46.189Z,98494.72
2023-03-03T15:00:13.761Z,98501.31
2023-03-03T15:02:46.460Z,98484.88
2023-03-03T15:05:19.797Z,98502.13
2023-03-03T15:07:53.613Z,98496.00
2023-03-03T15:10:47.141Z,98496.94
2023-03-03T15:13:20.112Z,98507.13
2023-03-03T15:16:01.084Z,98502.75
2023-03-03T15:18:32.586Z,98511.38
2023-03-03T15:21:08.130Z,98488.97
2023-03-03T15:23:47.278Z,98511.31
2023-03-03T15:26:30.073Z,98500.91
2023-03-03T15:29:34.529Z,98510.38
2023-03-03T15:32:21.548Z,98507.00
2023-03-03T15:35:01.868Z,98511.97
2023-03-03T15:37:55.463Z,98519.03
2023-03-03T15:40:52.791Z,98514.75
2023-03-03T15:43:27.613Z,98515.59
2023-03-03T15:46:35.352Z,98514.72
2023-03-03T15:49:31.249Z,98526.69
2023-03-03T15:52:33.323Z,98523.31
2023-03-03T15:55:36.703Z,98512.88
2023-03-03T15:58:30.553Z,98491.09
2023-03-03T16:01:03.610Z,98516.34
2023-03-03T16:03:56.683Z,98521.56
2023-03-03T16:06:38.704Z,98505.91
2023-03-03T16:09:23.522Z,98523.28
2023-03-03T16:11:59.980Z,98499.75
2023-03-03T16:14:39.096Z,98522.38
2023-03-03T16:17:15.156Z,98532.56
2023-03-03T16:20:14.330Z,98522.44
2023-03-03T16:23:02.405Z,98518.84
2023-03-03T16:25:47.904Z,98524.03
2023-03-03T16:28:23.090Z,98520.59
2023-03-03T16:31:13.129Z,98520.63
2023-03-03T16:33:55.454Z,98520.59
2023-03-03T16:36:29.626Z,98520.44
2023-03-03T16:39:26.058Z,98518.84
2023-03-03T16:42:05.160Z,98515.34
2023-03-03T16:44:38.530Z,98528.22
2023-03-03T16:47:35.660Z,98526.59
2023-03-03T16:50:15.832Z,98526.56
2023-03-03T16:52:54.136Z,98525.72
2023-03-03T16:55:56.220Z,98525.81
2023-03-03T16:58:46.761Z,98508.34
2023-03-03T17:01:28.851Z,98524.03
2023-03-03T17:03:55.852Z,98523.97
2023-03-03T17:06:33.937Z,98490.19
2023-03-03T17:09:32.849Z,98514.56
2023-03-03T17:12:09.314Z,98516.97
2023-03-03T17:14:48.651Z,98489.25
2023-03-03T17:17:35.479Z,98519.59
2023-03-03T17:20:28.976Z,98520.47
2023-03-03T17:23:03.182Z,98518.59
2023-03-03T17:26:08.330Z,98520.41
2023-03-03T17:29:01.120Z,98520.41
2023-03-03T17:31:51.956Z,98511.84
2023-03-03T17:34:40.979Z,98515.13
2023-03-03T17:37:07.939Z,98517.66
2023-03-03T17:40:18.017Z,98513.44
2023-03-03T17:43:19.266Z,98517.69
2023-03-03T17:45:50.591Z,98516.66
2023-03-03T17:48:20.624Z,98516.72
2023-03-03T17:51:15.584Z,98519.44
2023-03-03T17:53:50.438Z,98499.44
2023-03-03T17:56:53.124Z,98512.34
2023-03-03T17:59:34.768Z,98496.63
2023-03-03T18:02:30.520Z,98514.81
2023-03-03T18:05:24.855Z,98515.66
2023-03-03T18:08:24.923Z,98518.31
2023-03-03T18:11:14.167Z,98511.38
2023-03-03T18:13:55.884Z,98522.50
2023-03-03T18:16:28.035Z,98524.16
2023-03-03T18:19:01.089Z,98514.66
2023-03-03T18:21:36.941Z,98513.00
2023-03-03T18:24:27.893Z,98519.22
2023-03-03T18:26:56.427Z,98508.84
2023-03-03T18:29:28.272Z,98509.59
2023-03-03T18:31:58.150Z,98518.16
2023-03-03T18:34:36.309Z,98495.84
2023-03-03T18:37:30.563Z,98520.03
2023-03-03T18:40:03.806Z,98514.91
2023-03-03T18:42:39.120Z,98519.16
2023-03-03T18:45:18.151Z,98512.34
2023-03-03T18:48:00.856Z,98510.63
2023-03-03T18:50:34.963Z,98506.94
2023-03-03T18:53:20.493Z,98513.97
2023-03-03T18:55:50.661Z,98503.31
2023-03-03T18:58:17.646Z,98514.38
2023-03-03T19:00:54.832Z,98514.38
2023-03-03T19:03:34.253Z,98503.84
2023-03-03T19:06:02.870Z,98515.94
2023-03-03T19:08:44.397Z,98514.13
2023-03-03T19:11:32.787Z,98519.31
2023-03-03T19:14:21.324Z,98476.69
2023-03-03T19:16:49.789Z,98461.06
2023-03-03T19:19:23.250Z,98511.38
2023-03-03T19:22:26.373Z,98508.84
2023-03-03T19:25:26.930Z,98504.53
2023-03-03T19:28:15.722Z,98505.31
2023-03-03T19:30:51.735Z,98502.31
2023-03-03T19:33:40.906Z,98507.44
2023-03-03T19:36:37.441Z,98506.50
2023-03-03T19:39:25.372Z,98511.47
2023-03-03T19:42:10.857Z,98494.97
2023-03-03T19:44:43.612Z,98507.06
2023-03-03T19:47:13.263Z,98512.91
2023-03-03T19:50:05.356Z,98510.38
2023-03-03T19:52:41.434Z,98513.47
2023-03-03T19:55:20.519Z,98510.88
2023-03-03T19:58:07.014Z,98516.66
2023-03-03T20:00:52.299Z,98513.91
2023-03-03T20:03:41.003Z,98506.94
2023-03-03T20:06:10.563Z,98507.53
2023-03-03T20:09:02.968Z,98504.91
2023-03-03T20:11:59.265Z,98505.63
2023-03-03T20:14:35.313Z,98491.78
2023-03-03T20:17:30.772Z,98492.13
2023-03-03T20:20:22.949Z,98486.91
2023-03-03T20:23:17.057Z,98492.00
2023-03-03T20:26:04.269Z,98467.72
2023-03-03T20:29:06.598Z,98480.84
2023-03-03T20:32:01.393Z,98476.63
2023-03-03T20:35:00.553Z,98461.97
2023-03-03T20:37:55.420Z,98476.88
2023-03-03T20:40:40.587Z,98474.25
2023-03-03T20:43:22.083Z,98474.09
2023-03-03T20:46:08.055Z,98467.19
2023-03-03T20:48:53.631Z,98477.50
2023-03-03T20:51:57.859Z,98469.09
2023-03-03T20:54:40.610Z,98448.22
2023-03-03T20:57:29.018Z,98469.69
2023-03-03T21:00:02.709Z,98450.75
2023-03-03T21:02:46.674Z,98411.91
2023-03-03T21:05:20.015Z,98460.50
2023-03-03T21:08:08.201Z,98462.31
2023-03-03T21:10:37.523Z,98465.53
2023-03-03T21:13:29.616Z,98464.06
2023-03-03T21:16:03.113Z,98458.00
2023-03-03T21:18:30.567Z,98461.44
2023-03-03T21:20:57.571Z,98444.03
2023-03-03T21:23:24.611Z,98433.63
2023-03-03T21:25:54.246Z,98455.13
2023-03-03T21:28:26.912Z,98455.13
2023-03-03T21:31:14.158Z,98455.16
2023-03-03T21:33:58.200Z,98454.34
2023-03-03T21:36:37.032Z,98454.25
2023-03-03T21:39:23.027Z,98445.50
2023-03-03T21:41:56.204Z,98445.47
2023-03-03T21:44:52.535Z,98440.34
2023-03-03T21:47:22.485Z,98441.75
2023-03-03T21:49:51.573Z,98443.59
2023-03-03T21:52:20.744Z,98439.53
2023-03-03T21:54:49.733Z,98432.72
2023-03-03T21:57:17.168Z,98440.38
2023-03-03T21:59:44.141Z,98426.41
2023-03-03T22:02:11.143Z,98434.22
2023-03-03T22:04:42.306Z,98413.28
2023-03-03T22:07:09.866Z,98415.16
2023-03-03T22:09:37.898Z,98431.72
2023-03-03T22:12:06.196Z,98426.56
2023-03-03T22:14:33.599Z,98425.72
2023-03-03T22:17:00.632Z,98425.72
2023-03-03T22:19:27.607Z,98426.41
2023-03-03T22:21:54.597Z,98422.16
2023-03-03T22:24:21.615Z,98418.00
2023-03-03T22:26:48.679Z,98417.25
2023-03-03T22:29:17.244Z,98396.59
2023-03-03T22:31:44.274Z,98414.03
2023-03-03T22:34:11.400Z,98409.03
2023-03-03T22:36:38.408Z,98413.28
2023-03-03T22:39:05.394Z,98407.00
2023-03-03T22:41:34.992Z,98408.75
2023-03-03T22:44:01.952Z,98396.56
2023-03-03T22:46:28.952Z,98416.41
2023-03-03T22:48:56.026Z,98413.09
2023-03-03T22:51:23.038Z,98398.44
2023-03-03T22:53:50.148Z,98404.56
2023-03-03T22:56:17.239Z,98407.91
2023-03-03T22:58:44.259Z,98397.75
2023-03-03T23:01:11.273Z,98409.78
2023-03-03T23:03:38.423Z,98406.47
2023-03-03T23:06:05.838Z,98391.84
2023-03-03T23:08:32.880Z,98402.31
2023-03-03T23:10:59.864Z,98394.41
2023-03-03T23:13:27.496Z,98405.53
2023-03-03T23:15:58.571Z,98391.94
2023-03-03T23:18:29.682Z,98384.03
2023-03-03T23:20:57.230Z,98380.53
2023-03-03T23:23:24.737Z,98384.78
2023-03-03T23:25:51.747Z,98325.03
2023-03-03T23:28:19.445Z,98361.78
2023-03-03T23:30:46.524Z,98381.59
2023-03-03T23:33:13.798Z,98361.81
2023-03-03T23:35:41.218Z,98369.66
2023-03-03T23:38:08.382Z,98368.94
2023-03-03T23:40:35.407Z,98368.03
2023-03-03T23:43:02.461Z,98375.03
2023-03-03T23:45:29.447Z,98366.53
2023-03-03T23:47:56.691Z,98363.09
2023-03-03T23:50:23.686Z,98344.97
2023-03-03T23:52:50.896Z,98355.31
2023-03-03T23:55:17.982Z,98350.03
2023-03-03T23:57:45.017Z,98355.19
